Weather History for Harbor Springs, MI

Change the Weather History Date:

Saturday, December 15, 2012

  Actual Average (KPLN) Record (KPLN)
Temperature  
Mean Temperature 32 °F -  
Max Temperature 37 °F 31 °F 50 °F (1997)
Min Temperature 28 °F 19 °F -11 °F (1958)
Degree Days  
Heating Degree Days 32    
Moisture  
Dew Point 31 °F    
Average Humidity 88    
Maximum Humidity 94    
Minimum Humidity 80    
Precipitation  
Precipitation 0.00 in - - ()
Sea Level Pressure  
Sea Level Pressure 29.95 in    
Wind  
Wind Speed 10 mph (East)    
Max Wind Speed 15 mph    
Max Gust Speed 23 mph    
Visibility 8 miles    
Events Rain    
Averages and records for this station are not official NWS values.
T = Trace of Precipitation, MM = Missing Value Source: NWS Daily Summary

Daily Weather History Graph

Daily Weather History Graph

Search for Another Location

Airport:

Trip Planner

Search our weather history database for the weather conditions in past years. The results will help you decide how hot, cold, wet, or windy it might be!

Date:

Astronomy

Dec. 15, 2012 Rise Set
Actual Time 8:12 AM EST 4:57 PM EST
Civil Twilight 7:38 AM EST 5:31 PM EST
Nautical Twilight 7:01 AM EST 6:08 PM EST
Astronomical Twilight 6:25 AM EST 6:44 PM EST
Moon 9:59 AM EST (12/15) 8:06 PM EST (12/15)
Length of Visible Light 9h 52m
Length of Day
8h 44m
Waxing Crescent, 8% of the Moon is Illuminated
Dec 15
Waxing Crescent
Dec 20
First Quarter
Dec 28
Full
Jan 4
Last Quarter
Jan 11
New

Hourly Weather History & Observations

Time (EST) Temp. Windchill Dew Point Humidity Pressure Visibility Wind Dir Wind Speed Gust Speed Precip Events Conditions
12:14 AM 28.2 °F 18.9 °F 25.2 °F 88% 30.20 in 10.0 mi ENE 10.4 mph - N/A   Overcast
12:35 AM 28.8 °F 19.5 °F 25.5 °F 88% 30.19 in 10.0 mi ENE 10.4 mph - N/A   Overcast
12:55 AM 29.7 °F 20.1 °F 26.4 °F 88% 30.19 in 10.0 mi East 11.5 mph 18.4 mph N/A   Overcast
1:14 AM 29.7 °F 21.3 °F 26.4 °F 88% 30.19 in 10.0 mi East 9.2 mph - N/A   Overcast
1:35 AM 29.7 °F 22.0 °F 26.4 °F 88% 30.19 in 10.0 mi East 8.1 mph - N/A   Overcast
1:55 AM 30.0 °F 21.1 °F 26.8 °F 88% 30.18 in 10.0 mi East 10.4 mph 16.1 mph N/A   Overcast
2:14 AM 30.6 °F 22.4 °F 27.1 °F 87% 30.17 in 10.0 mi East 9.2 mph 16.1 mph N/A   Overcast
2:35 AM 30.6 °F 21.8 °F 27.1 °F 87% 30.16 in 10.0 mi East 10.4 mph - N/A   Overcast
2:55 AM 30.6 °F 21.2 °F 27.1 °F 87% 30.16 in 10.0 mi East 11.5 mph 16.1 mph N/A   Overcast
3:14 AM 30.6 °F 23.1 °F 27.1 °F 87% 30.16 in 10.0 mi East 8.1 mph 16.1 mph N/A   Overcast
3:35 AM 30.6 °F 22.4 °F 27.0 °F 86% 30.16 in 10.0 mi East 9.2 mph - N/A   Overcast
3:55 AM 30.6 °F 23.1 °F 27.0 °F 86% 30.16 in 10.0 mi East 8.1 mph - N/A   Overcast
4:14 AM 31.1 °F 23.1 °F 27.5 °F 87% 30.15 in 10.0 mi East 9.2 mph - N/A   Overcast
4:35 AM 31.1 °F 23.1 °F 27.5 °F 87% 30.14 in 10.0 mi East 9.2 mph - N/A   Overcast
4:55 AM 31.6 °F 23.7 °F 28.2 °F 87% 30.14 in 10.0 mi East 9.2 mph 16.1 mph N/A   Overcast
5:15 AM 32.9 °F 23.7 °F 29.3 °F 87% 30.13 in 10.0 mi East 12.7 mph - N/A   Overcast
5:35 AM 32.9 °F 24.7 °F 29.3 °F 87% 30.12 in 10.0 mi East 10.4 mph - N/A   Overcast
5:55 AM 32.9 °F 24.1 °F 29.3 °F 87% 30.12 in 10.0 mi East 11.5 mph 18.4 mph N/A   Overcast
6:14 AM 32.9 °F 25.9 °F 29.3 °F 87% 30.11 in 10.0 mi East 8.1 mph 19.6 mph N/A   Overcast
6:35 AM 32.9 °F 26.7 °F 29.3 °F 87% 30.11 in 10.0 mi East 6.9 mph - N/A   Overcast
6:54 AM 32.9 °F 25.9 °F 29.3 °F 87% 30.12 in 10.0 mi East 8.1 mph - N/A   Overcast
7:15 AM 32.9 °F 25.9 °F 29.3 °F 87% 30.11 in 10.0 mi East 8.1 mph - N/A   Overcast
7:35 AM 32.9 °F 24.1 °F 29.3 °F 87% 30.09 in 10.0 mi East 11.5 mph - N/A   Overcast
7:54 AM 32.9 °F 24.7 °F 29.5 °F 87% 30.09 in 10.0 mi East 10.4 mph 16.1 mph N/A   Overcast
8:15 AM 33.1 °F 25.5 °F 29.8 °F 88% 30.09 in 10.0 mi East 9.2 mph 17.3 mph N/A   Overcast
8:35 AM 34.0 °F 26.6 °F 30.7 °F 88% 30.09 in 10.0 mi East 9.2 mph 16.1 mph N/A   Overcast
8:54 AM 34.2 °F 26.2 °F 30.7 °F 87% 30.07 in 10.0 mi East 10.4 mph - N/A   Overcast
9:15 AM 34.2 °F 26.2 °F 30.7 °F 87% 30.06 in 10.0 mi East 10.4 mph 16.1 mph N/A   Overcast
9:35 AM 35.1 °F 26.4 °F 31.1 °F 85% 30.05 in 10.0 mi East 12.7 mph 20.7 mph N/A   Overcast
9:54 AM 35.2 °F 27.1 °F 31.1 °F 85% 30.04 in 10.0 mi East 11.5 mph 19.6 mph N/A   Overcast
10:15 AM 35.2 °F 26.6 °F 31.1 °F 85% 30.03 in 10.0 mi East 12.7 mph 20.7 mph N/A   Overcast
10:35 AM 35.2 °F 26.6 °F 31.1 °F 85% 30.02 in 10.0 mi East 12.7 mph 19.6 mph N/A   Overcast
10:54 AM 35.2 °F 26.6 °F 30.9 °F 84% 30.01 in 10.0 mi East 12.7 mph 19.6 mph N/A   Mostly Cloudy
11:15 AM 35.2 °F 26.6 °F 30.7 °F 84% 30.00 in 10.0 mi East 12.7 mph 23.0 mph N/A   Overcast
11:35 AM 35.6 °F 27.5 °F 30.9 °F 83% 29.99 in 10.0 mi East 11.5 mph 21.9 mph N/A   Overcast
11:54 AM 36.7 °F 29.4 °F 31.6 °F 82% 29.98 in 7.0 mi East 10.4 mph 20.7 mph N/A   Overcast
12:15 PM 37.6 °F 29.1 °F 32.0 °F 80% 29.98 in 10.0 mi East 13.8 mph 20.7 mph N/A   Overcast
12:35 PM 37.6 °F 31.0 °F 32.0 °F 80% 29.98 in 10.0 mi ESE 9.2 mph 17.3 mph N/A   Overcast
12:54 PM 37.6 °F 31.6 °F 31.8 °F 80% 29.96 in 10.0 mi East 8.1 mph 17.3 mph N/A   Overcast
1:15 PM 37.6 °F 31.0 °F 32.0 °F 80% 29.94 in 10.0 mi ENE 9.2 mph 16.1 mph N/A   Overcast
1:35 PM 37.6 °F 30.0 °F 32.0 °F 80% 29.92 in 7.0 mi East 11.5 mph - N/A   Mostly Cloudy
1:54 PM 37.6 °F 28.8 °F 32.0 °F 80% 29.90 in 10.0 mi ENE 15.0 mph 18.4 mph N/A   Mostly Cloudy
2:15 PM 37.6 °F 30.0 °F 32.5 °F 82% 29.90 in 7.0 mi ENE 11.5 mph - N/A   Overcast
2:35 PM 37.6 °F 32.3 °F 32.4 °F 81% 29.91 in 7.0 mi East 6.9 mph - N/A Rain Rain
2:54 PM 37.6 °F 30.0 °F 32.5 °F 82% 29.89 in 7.0 mi ENE 11.5 mph - N/A   Light Drizzle
3:15 PM 37.6 °F 31.6 °F 32.7 °F 83% 29.89 in 7.0 mi East 8.1 mph - N/A Rain Light Rain
3:35 PM 37.6 °F 31.0 °F 32.5 °F 82% 29.88 in 7.0 mi East 9.2 mph - N/A   Overcast
3:54 PM 37.0 °F 29.8 °F 32.9 °F 85% 29.86 in 4.0 mi East 10.4 mph - N/A Rain Light Rain
4:15 PM 35.8 °F 28.8 °F 32.4 °F 87% 29.85 in 4.0 mi East 9.2 mph 17.3 mph N/A Rain Light Rain
4:35 PM 35.2 °F 27.1 °F 32.7 °F 91% 29.83 in 5.0 mi East 11.5 mph - N/A Rain Light Rain
4:54 PM 35.2 °F 27.1 °F 33.1 °F 92% 29.82 in 5.0 mi East 11.5 mph 18.4 mph N/A Rain Light Rain
5:15 PM 35.2 °F 27.1 °F 33.1 °F 92% 29.80 in 5.0 mi ENE 11.5 mph 20.7 mph N/A Rain Light Rain
5:35 PM 35.2 °F 26.6 °F 33.3 °F 92% 29.79 in 5.0 mi East 12.7 mph - N/A   Light Drizzle
5:55 PM 35.2 °F 26.6 °F 33.1 °F 92% 29.78 in 4.0 mi East 12.7 mph 18.4 mph N/A Rain Light Rain
6:15 PM 35.2 °F 26.2 °F 33.3 °F 92% 29.77 in 4.0 mi East 13.8 mph - N/A Rain Light Rain
6:34 PM 35.2 °F 27.1 °F 33.4 °F 93% 29.76 in 4.0 mi East 11.5 mph - N/A Rain Rain
6:55 PM 35.2 °F 26.2 °F 33.4 °F 93% 29.76 in 3.0 mi East 13.8 mph 19.6 mph N/A Rain Rain
7:15 PM 35.2 °F 26.2 °F 33.4 °F 93% 29.75 in 3.0 mi East 13.8 mph 19.6 mph N/A Rain Rain
7:34 PM 35.2 °F 26.6 °F 33.8 °F 94% 29.74 in 4.0 mi East 12.7 mph 17.3 mph N/A Rain Rain
7:55 PM 35.2 °F 26.6 °F 33.4 °F 93% 29.74 in 5.0 mi ENE 12.7 mph - N/A Rain Light Rain
8:15 PM 35.2 °F 27.1 °F 33.4 °F 93% 29.73 in 5.0 mi East 11.5 mph 23.0 mph N/A Rain Rain
8:34 PM 35.2 °F 27.1 °F 33.4 °F 93% 29.72 in 5.0 mi East 11.5 mph 21.9 mph N/A Rain Rain
8:55 PM 35.2 °F 26.6 °F 33.4 °F 93% 29.70 in 7.0 mi East 12.7 mph 17.3 mph N/A Rain Light Rain
9:15 PM 35.2 °F 27.1 °F 33.4 °F 93% 29.70 in 10.0 mi East 11.5 mph 16.1 mph N/A Rain Light Rain
9:34 PM 35.2 °F 27.6 °F 33.4 °F 93% 29.69 in 7.0 mi East 10.4 mph 18.4 mph N/A Rain Light Rain
9:55 PM 35.2 °F 28.8 °F 33.4 °F 93% 29.68 in 7.0 mi East 8.1 mph - N/A Rain Light Rain
10:15 PM 35.2 °F 28.1 °F 33.4 °F 93% 29.68 in 7.0 mi East 9.2 mph - N/A Rain Rain
10:34 PM 35.2 °F 28.8 °F 33.4 °F 93% 29.67 in 5.0 mi East 8.1 mph - N/A Rain Light Rain
10:55 PM 35.2 °F 28.8 °F 33.4 °F 93% 29.66 in 7.0 mi East 8.1 mph - N/A Rain Rain
11:14 PM 35.2 °F 27.6 °F 33.4 °F 93% 29.65 in 10.0 mi ENE 10.4 mph - N/A Rain Light Rain
11:35 PM 35.2 °F 28.8 °F 33.4 °F 93% 29.64 in 10.0 mi East 8.1 mph - N/A   Light Drizzle
11:55 PM 35.2 °F 27.6 °F 33.4 °F 93% 29.63 in 10.0 mi East 10.4 mph - N/A   Overcast